Redding Center, Connecticut
Current Conditions -  °F | °C
As of 6:53 PM on Friday 28 Nov 2014 (Local Time) from KDXR Reporting Station
Clear Clear  
Wind Chill: 18°   Ceiling: Unl
Heat Index: 26°   Visibility: 10mi
Dew Point: 12°   Wind: 8mph
Humidity: 55%   Direction: 290°WNW
Pressure: 30.22"   Gusts: NA
Location:  41.3°N, 73.38°W
Report Text: KDXR 282353Z 29007KT 10SM CLR M03/M11 A3022 RMK AO2 SLP237 T10331111 10011 21033 51018
Loading
Personal Weather Stations






























Interactive Weather Map New forecast layout! Learn more

10-Day Weather Forecast

Advertisements
Track Severe Weather on mobile